sensor_id;sensor_type;location;lat;lon;timestamp;temperature;humidity
37378;DHT22;23248;48.120;14.854;2022-10-17T00:00:46;12.80;99.90
37378;DHT22;23248;48.120;14.854;2022-10-17T00:03:12;12.80;99.90
37378;DHT22;23248;48.120;14.854;2022-10-17T00:05:39;12.80;99.90
37378;DHT22;23248;48.120;14.854;2022-10-17T00:08:05;12.90;99.90
37378;DHT22;23248;48.120;14.854;2022-10-17T00:10:31;13.00;99.90
37378;DHT22;23248;48.120;14.854;2022-10-17T00:12:56;13.00;99.90
37378;DHT22;23248;48.120;14.854;2022-10-17T00:15:22;13.00;99.90
37378;DHT22;23248;48.120;14.854;2022-10-17T00:17:47;12.90;99.90
37378;DHT22;23248;48.120;14.854;2022-10-17T00:20:13;12.90;99.90
37378;DHT22;23248;48.120;14.854;2022-10-17T00:22:39;12.90;99.90
37378;DHT22;23248;48.120;14.854;2022-10-17T00:25:05;12.90;99.90
37378;DHT22;23248;48.120;14.854;2022-10-17T00:27:33;12.80;99.90
37378;DHT22;23248;48.120;14.854;2022-10-17T00:29:59;12.80;99.90
37378;DHT22;23248;48.120;14.854;2022-10-17T00:32:24;12.80;99.90
37378;DHT22;23248;48.120;14.854;2022-10-17T00:34:50;12.80;99.90
37378;DHT22;23248;48.120;14.854;2022-10-17T00:37:16;12.80;99.90
37378;DHT22;23248;48.120;14.854;2022-10-17T00:39:41;12.80;99.90
37378;DHT22;23248;48.120;14.854;2022-10-17T00:42:09;12.80;99.90
37378;DHT22;23248;48.120;14.854;2022-10-17T00:47:01;12.70;99.90
37378;DHT22;23248;48.120;14.854;2022-10-17T00:49:29;12.70;99.90
37378;DHT22;23248;48.120;14.854;2022-10-17T00:51:56;12.70;99.90
37378;DHT22;23248;48.120;14.854;2022-10-17T00:54:24;12.70;99.90
37378;DHT22;23248;48.120;14.854;2022-10-17T00:56:50;12.70;99.90
37378;DHT22;23248;48.120;14.854;2022-10-17T00:59:17;12.70;99.90
37378;DHT22;23248;48.120;14.854;2022-10-17T01:01:45;12.70;99.90
37378;DHT22;23248;48.120;14.854;2022-10-17T01:04:12;12.70;99.90
37378;DHT22;23248;48.120;14.854;2022-10-17T01:06:37;12.70;99.90
37378;DHT22;23248;48.120;14.854;2022-10-17T01:09:03;12.70;99.90
37378;DHT22;23248;48.120;14.854;2022-10-17T01:21:55;12.60;99.90
37378;DHT22;23248;48.120;14.854;2022-10-17T01:34:36;12.60;99.90
37378;DHT22;23248;48.120;14.854;2022-10-17T01:37:05;12.60;99.90
37378;DHT22;23248;48.120;14.854;2022-10-17T01:39:52;12.60;99.90
37378;DHT22;23248;48.120;14.854;2022-10-17T01:42:41;12.60;99.90
37378;DHT22;23248;48.120;14.854;2022-10-17T01:47:30;12.60;99.90
37378;DHT22;23248;48.120;14.854;2022-10-17T01:49:59;12.60;99.90
37378;DHT22;23248;48.120;14.854;2022-10-17T01:52:27;12.60;99.90
37378;DHT22;23248;48.120;14.854;2022-10-17T01:54:57;12.50;99.90
37378;DHT22;23248;48.120;14.854;2022-10-17T01:57:45;12.50;99.90
37378;DHT22;23248;48.120;14.854;2022-10-17T02:00:13;12.50;99.90
37378;DHT22;23248;48.120;14.854;2022-10-17T02:02:40;12.40;99.90
37378;DHT22;23248;48.120;14.854;2022-10-17T02:05:06;12.40;99.90
37378;DHT22;23248;48.120;14.854;2022-10-17T02:07:32;12.40;99.90
37378;DHT22;23248;48.120;14.854;2022-10-17T02:09:58;12.30;99.90
37378;DHT22;23248;48.120;14.854;2022-10-17T02:25:13;12.20;99.90
37378;DHT22;23248;48.120;14.854;2022-10-17T02:27:53;12.20;99.90
37378;DHT22;23248;48.120;14.854;2022-10-17T02:30:28;12.30;99.90
37378;DHT22;23248;48.120;14.854;2022-10-17T02:32:59;12.20;99.90
37378;DHT22;23248;48.120;14.854;2022-10-17T02:35:26;12.20;99.90
37378;DHT22;23248;48.120;14.854;2022-10-17T02:37:53;12.20;99.90
37378;DHT22;23248;48.120;14.854;2022-10-17T02:40:19;12.20;99.90
37378;DHT22;23248;48.120;14.854;2022-10-17T02:42:46;12.20;99.90
37378;DHT22;23248;48.120;14.854;2022-10-17T02:45:12;12.20;99.90
37378;DHT22;23248;48.120;14.854;2022-10-17T02:50:07;12.30;99.90
37378;DHT22;23248;48.120;14.854;2022-10-17T02:52:43;12.30;99.90
37378;DHT22;23248;48.120;14.854;2022-10-17T02:57:37;12.20;99.90
37378;DHT22;23248;48.120;14.854;2022-10-17T03:00:04;12.20;99.90
37378;DHT22;23248;48.120;14.854;2022-10-17T03:02:42;12.20;99.90
37378;DHT22;23248;48.120;14.854;2022-10-17T03:05:09;12.20;99.90
37378;DHT22;23248;48.120;14.854;2022-10-17T03:07:35;12.20;99.90
37378;DHT22;23248;48.120;14.854;2022-10-17T03:10:00;12.10;99.90
37378;DHT22;23248;48.120;14.854;2022-10-17T03:12:26;12.10;99.90
37378;DHT22;23248;48.120;14.854;2022-10-17T03:14:52;12.00;99.90
37378;DHT22;23248;48.120;14.854;2022-10-17T03:17:17;12.00;99.90
37378;DHT22;23248;48.120;14.854;2022-10-17T03:19:43;12.00;99.90
37378;DHT22;23248;48.120;14.854;2022-10-17T03:22:09;12.00;99.90
37378;DHT22;23248;48.120;14.854;2022-10-17T03:24:34;12.00;99.90
37378;DHT22;23248;48.120;14.854;2022-10-17T03:27:00;12.00;99.90
37378;DHT22;23248;48.120;14.854;2022-10-17T03:29:25;12.00;99.90
37378;DHT22;23248;48.120;14.854;2022-10-17T03:31:51;12.00;99.90
37378;DHT22;23248;48.120;14.854;2022-10-17T03:34:17;12.00;99.90
37378;DHT22;23248;48.120;14.854;2022-10-17T03:36:43;12.00;99.90
37378;DHT22;23248;48.120;14.854;2022-10-17T03:39:09;12.00;99.90
37378;DHT22;23248;48.120;14.854;2022-10-17T03:41:34;12.00;99.90
37378;DHT22;23248;48.120;14.854;2022-10-17T03:44:00;12.00;99.90
37378;DHT22;23248;48.120;14.854;2022-10-17T03:46:26;12.00;99.90
37378;DHT22;23248;48.120;14.854;2022-10-17T03:48:51;12.00;99.90
37378;DHT22;23248;48.120;14.854;2022-10-17T03:51:17;12.00;99.90
37378;DHT22;23248;48.120;14.854;2022-10-17T03:53:43;12.00;99.90
37378;DHT22;23248;48.120;14.854;2022-10-17T03:58:34;12.10;99.90
37378;DHT22;23248;48.120;14.854;2022-10-17T04:01:04;12.10;99.90
37378;DHT22;23248;48.120;14.854;2022-10-17T04:03:29;12.10;99.90
37378;DHT22;23248;48.120;14.854;2022-10-17T04:05:57;12.10;99.90
37378;DHT22;23248;48.120;14.854;2022-10-17T04:08:23;12.00;99.90
37378;DHT22;23248;48.120;14.854;2022-10-17T04:10:48;12.10;99.90
37378;DHT22;23248;48.120;14.854;2022-10-17T04:13:14;12.10;99.90
37378;DHT22;23248;48.120;14.854;2022-10-17T04:15:39;12.10;99.90
37378;DHT22;23248;48.120;14.854;2022-10-17T04:18:05;12.10;99.90
37378;DHT22;23248;48.120;14.854;2022-10-17T04:20:30;12.10;99.90
37378;DHT22;23248;48.120;14.854;2022-10-17T04:22:56;12.10;99.90
37378;DHT22;23248;48.120;14.854;2022-10-17T04:25:22;12.10;99.90
37378;DHT22;23248;48.120;14.854;2022-10-17T04:27:47;12.10;99.90
37378;DHT22;23248;48.120;14.854;2022-10-17T04:30:13;12.10;99.90
37378;DHT22;23248;48.120;14.854;2022-10-17T04:32:39;12.10;99.90
37378;DHT22;23248;48.120;14.854;2022-10-17T04:35:04;12.10;99.90
37378;DHT22;23248;48.120;14.854;2022-10-17T04:37:30;12.20;99.90
37378;DHT22;23248;48.120;14.854;2022-10-17T04:39:56;12.20;99.90
37378;DHT22;23248;48.120;14.854;2022-10-17T04:42:21;12.20;99.90
37378;DHT22;23248;48.120;14.854;2022-10-17T04:44:47;12.20;99.90
37378;DHT22;23248;48.120;14.854;2022-10-17T04:47:13;12.20;99.90
37378;DHT22;23248;48.120;14.854;2022-10-17T04:49:38;12.20;99.90
37378;DHT22;23248;48.120;14.854;2022-10-17T04:52:04;12.20;99.90
37378;DHT22;23248;48.120;14.854;2022-10-17T04:54:29;12.20;99.90
37378;DHT22;23248;48.120;14.854;2022-10-17T04:56:55;12.20;99.90
37378;DHT22;23248;48.120;14.854;2022-10-17T04:59:20;12.30;99.90
37378;DHT22;23248;48.120;14.854;2022-10-17T05:01:47;12.30;99.90
37378;DHT22;23248;48.120;14.854;2022-10-17T05:04:13;12.30;99.90
37378;DHT22;23248;48.120;14.854;2022-10-17T05:06:38;12.30;99.90
37378;DHT22;23248;48.120;14.854;2022-10-17T05:09:04;12.30;99.90
37378;DHT22;23248;48.120;14.854;2022-10-17T05:11:30;12.30;99.90
37378;DHT22;23248;48.120;14.854;2022-10-17T05:13:56;12.40;99.90
37378;DHT22;23248;48.120;14.854;2022-10-17T05:16:22;12.40;99.90
37378;DHT22;23248;48.120;14.854;2022-10-17T05:18:48;12.40;99.90
37378;DHT22;23248;48.120;14.854;2022-10-17T05:21:15;12.40;99.90
37378;DHT22;23248;48.120;14.854;2022-10-17T05:23:40;12.40;99.90
37378;DHT22;23248;48.120;14.854;2022-10-17T05:26:06;12.40;99.90
37378;DHT22;23248;48.120;14.854;2022-10-17T05:28:32;12.40;99.90
37378;DHT22;23248;48.120;14.854;2022-10-17T05:31:01;12.40;99.90
37378;DHT22;23248;48.120;14.854;2022-10-17T05:33:26;12.50;99.90
37378;DHT22;23248;48.120;14.854;2022-10-17T05:35:52;12.40;99.90
37378;DHT22;23248;48.120;14.854;2022-10-17T05:38:18;12.40;99.90
37378;DHT22;23248;48.120;14.854;2022-10-17T05:40:43;12.40;99.90
37378;DHT22;23248;48.120;14.854;2022-10-17T05:43:09;12.40;99.90
37378;DHT22;23248;48.120;14.854;2022-10-17T05:45:35;12.40;99.90
37378;DHT22;23248;48.120;14.854;2022-10-17T05:48:00;12.40;99.90
37378;DHT22;23248;48.120;14.854;2022-10-17T05:50:26;12.40;99.90
37378;DHT22;23248;48.120;14.854;2022-10-17T05:52:52;12.40;99.90
37378;DHT22;23248;48.120;14.854;2022-10-17T05:55:18;12.40;99.90
37378;DHT22;23248;48.120;14.854;2022-10-17T05:57:43;12.40;99.90
37378;DHT22;23248;48.120;14.854;2022-10-17T06:00:09;12.40;99.90
37378;DHT22;23248;48.120;14.854;2022-10-17T06:02:35;12.40;99.90
37378;DHT22;23248;48.120;14.854;2022-10-17T06:05:00;12.40;99.90
37378;DHT22;23248;48.120;14.854;2022-10-17T06:07:26;12.40;99.90
37378;DHT22;23248;48.120;14.854;2022-10-17T06:09:52;12.40;99.90
37378;DHT22;23248;48.120;14.854;2022-10-17T06:12:17;12.40;99.90
37378;DHT22;23248;48.120;14.854;2022-10-17T06:14:43;12.40;99.90
37378;DHT22;23248;48.120;14.854;2022-10-17T06:17:09;12.40;99.90
37378;DHT22;23248;48.120;14.854;2022-10-17T06:19:34;12.30;99.90
37378;DHT22;23248;48.120;14.854;2022-10-17T06:22:01;12.30;99.90
37378;DHT22;23248;48.120;14.854;2022-10-17T06:24:26;12.30;99.90
37378;DHT22;23248;48.120;14.854;2022-10-17T06:26:52;12.30;99.90
37378;DHT22;23248;48.120;14.854;2022-10-17T06:29:17;12.20;99.90
37378;DHT22;23248;48.120;14.854;2022-10-17T06:31:43;12.20;99.90
37378;DHT22;23248;48.120;14.854;2022-10-17T06:34:09;12.20;99.90
37378;DHT22;23248;48.120;14.854;2022-10-17T06:36:34;12.20;99.90
37378;DHT22;23248;48.120;14.854;2022-10-17T06:39:00;12.20;99.90
37378;DHT22;23248;48.120;14.854;2022-10-17T06:41:26;12.20;99.90
37378;DHT22;23248;48.120;14.854;2022-10-17T06:43:51;12.20;99.90
37378;DHT22;23248;48.120;14.854;2022-10-17T06:46:17;12.20;99.90
37378;DHT22;23248;48.120;14.854;2022-10-17T06:48:43;12.10;99.90
37378;DHT22;23248;48.120;14.854;2022-10-17T06:51:09;12.20;99.90
37378;DHT22;23248;48.120;14.854;2022-10-17T06:53:36;12.20;99.90
37378;DHT22;23248;48.120;14.854;2022-10-17T06:56:02;12.10;99.90
37378;DHT22;23248;48.120;14.854;2022-10-17T06:58:29;12.20;99.90
37378;DHT22;23248;48.120;14.854;2022-10-17T07:01:05;12.10;99.90
37378;DHT22;23248;48.120;14.854;2022-10-17T07:03:31;12.20;99.90
37378;DHT22;23248;48.120;14.854;2022-10-17T07:05:56;12.10;99.90
37378;DHT22;23248;48.120;14.854;2022-10-17T07:08:22;12.10;99.90
37378;DHT22;23248;48.120;14.854;2022-10-17T07:10:48;12.20;99.90
37378;DHT22;23248;48.120;14.854;2022-10-17T07:13:13;12.20;99.90
37378;DHT22;23248;48.120;14.854;2022-10-17T07:15:39;12.20;99.90
37378;DHT22;23248;48.120;14.854;2022-10-17T07:18:05;12.20;99.90
37378;DHT22;23248;48.120;14.854;2022-10-17T07:20:31;12.20;99.90
37378;DHT22;23248;48.120;14.854;2022-10-17T07:22:56;12.20;99.90
37378;DHT22;23248;48.120;14.854;2022-10-17T07:25:22;12.20;99.90
37378;DHT22;23248;48.120;14.854;2022-10-17T07:27:48;12.20;99.90
37378;DHT22;23248;48.120;14.854;2022-10-17T07:30:14;12.20;99.90
37378;DHT22;23248;48.120;14.854;2022-10-17T07:32:41;12.20;99.90
37378;DHT22;23248;48.120;14.854;2022-10-17T07:35:06;12.30;99.90
37378;DHT22;23248;48.120;14.854;2022-10-17T07:37:32;12.20;99.90
37378;DHT22;23248;48.120;14.854;2022-10-17T07:39:58;12.30;99.90
37378;DHT22;23248;48.120;14.854;2022-10-17T07:42:23;12.30;99.90
37378;DHT22;23248;48.120;14.854;2022-10-17T07:44:49;12.30;99.90
37378;DHT22;23248;48.120;14.854;2022-10-17T07:47:15;12.30;99.90
37378;DHT22;23248;48.120;14.854;2022-10-17T07:49:41;12.30;99.90
37378;DHT22;23248;48.120;14.854;2022-10-17T07:52:09;12.30;99.90
37378;DHT22;23248;48.120;14.854;2022-10-17T07:54:34;12.40;99.90
37378;DHT22;23248;48.120;14.854;2022-10-17T07:57:00;12.40;99.90
37378;DHT22;23248;48.120;14.854;2022-10-17T07:59:26;12.40;99.90
37378;DHT22;23248;48.120;14.854;2022-10-17T08:01:54;12.40;99.90
37378;DHT22;23248;48.120;14.854;2022-10-17T08:04:19;12.50;99.90
37378;DHT22;23248;48.120;14.854;2022-10-17T08:06:45;12.50;99.90
37378;DHT22;23248;48.120;14.854;2022-10-17T08:09:10;12.50;99.90
37378;DHT22;23248;48.120;14.854;2022-10-17T08:11:36;12.50;99.90
37378;DHT22;23248;48.120;14.854;2022-10-17T08:14:02;12.50;99.90
37378;DHT22;23248;48.120;14.854;2022-10-17T08:16:27;12.60;99.90
37378;DHT22;23248;48.120;14.854;2022-10-17T08:18:53;12.60;99.90
37378;DHT22;23248;48.120;14.854;2022-10-17T08:21:19;12.60;99.90
37378;DHT22;23248;48.120;14.854;2022-10-17T08:23:44;12.60;99.90
37378;DHT22;23248;48.120;14.854;2022-10-17T08:26:10;12.70;99.90
37378;DHT22;23248;48.120;14.854;2022-10-17T08:28:38;12.70;99.90
37378;DHT22;23248;48.120;14.854;2022-10-17T08:31:11;12.70;99.90
37378;DHT22;23248;48.120;14.854;2022-10-17T08:33:38;12.70;99.90
37378;DHT22;23248;48.120;14.854;2022-10-17T08:36:04;12.80;99.90
37378;DHT22;23248;48.120;14.854;2022-10-17T08:38:30;12.80;99.90
37378;DHT22;23248;48.120;14.854;2022-10-17T08:40:59;12.80;99.90
37378;DHT22;23248;48.120;14.854;2022-10-17T08:45:58;12.70;99.90
37378;DHT22;23248;48.120;14.854;2022-10-17T08:48:25;12.80;99.90
37378;DHT22;23248;48.120;14.854;2022-10-17T08:50:53;12.80;99.90
37378;DHT22;23248;48.120;14.854;2022-10-17T08:53:26;12.80;99.90
37378;DHT22;23248;48.120;14.854;2022-10-17T08:55:54;12.80;99.90
37378;DHT22;23248;48.120;14.854;2022-10-17T08:58:23;12.80;99.90
37378;DHT22;23248;48.120;14.854;2022-10-17T09:05:56;12.90;99.90
37378;DHT22;23248;48.120;14.854;2022-10-17T09:15:57;12.90;99.90
37378;DHT22;23248;48.120;14.854;2022-10-17T09:18:32;12.90;99.90
37378;DHT22;23248;48.120;14.854;2022-10-17T09:21:01;12.90;99.90
37378;DHT22;23248;48.120;14.854;2022-10-17T09:23:31;12.90;99.90
37378;DHT22;23248;48.120;14.854;2022-10-17T09:26:00;12.90;99.90
37378;DHT22;23248;48.120;14.854;2022-10-17T09:28:33;12.90;99.90
37378;DHT22;23248;48.120;14.854;2022-10-17T09:33:26;13.00;99.90
37378;DHT22;23248;48.120;14.854;2022-10-17T09:35:53;13.10;99.90
37378;DHT22;23248;48.120;14.854;2022-10-17T09:38:20;13.10;99.90
37378;DHT22;23248;48.120;14.854;2022-10-17T09:40:49;13.10;99.90
37378;DHT22;23248;48.120;14.854;2022-10-17T09:43:16;13.20;99.90
37378;DHT22;23248;48.120;14.854;2022-10-17T09:45:44;13.20;99.90
37378;DHT22;23248;48.120;14.854;2022-10-17T09:50:49;13.20;99.90
37378;DHT22;23248;48.120;14.854;2022-10-17T09:53:17;13.20;99.90
37378;DHT22;23248;48.120;14.854;2022-10-17T09:55:46;13.30;99.90
37378;DHT22;23248;48.120;14.854;2022-10-17T09:58:14;13.30;99.90
37378;DHT22;23248;48.120;14.854;2022-10-17T10:00:41;13.40;99.90
37378;DHT22;23248;48.120;14.854;2022-10-17T10:05:33;13.40;99.90
37378;DHT22;23248;48.120;14.854;2022-10-17T10:08:03;13.50;99.90
37378;DHT22;23248;48.120;14.854;2022-10-17T10:10:29;13.50;99.90
37378;DHT22;23248;48.120;14.854;2022-10-17T10:15:32;13.60;99.90
37378;DHT22;23248;48.120;14.854;2022-10-17T10:17:58;13.60;99.90
37378;DHT22;23248;48.120;14.854;2022-10-17T10:25:37;13.60;99.90
37378;DHT22;23248;48.120;14.854;2022-10-17T10:28:13;13.60;99.90
37378;DHT22;23248;48.120;14.854;2022-10-17T10:30:40;13.70;99.90
37378;DHT22;23248;48.120;14.854;2022-10-17T10:33:11;13.70;99.90
37378;DHT22;23248;48.120;14.854;2022-10-17T10:35:36;13.80;99.90
37378;DHT22;23248;48.120;14.854;2022-10-17T10:38:03;13.70;99.90
37378;DHT22;23248;48.120;14.854;2022-10-17T10:40:46;13.70;99.90
37378;DHT22;23248;48.120;14.854;2022-10-17T10:43:23;13.80;99.90
37378;DHT22;23248;48.120;14.854;2022-10-17T10:45:50;13.80;99.90
37378;DHT22;23248;48.120;14.854;2022-10-17T10:53:37;13.90;99.90
37378;DHT22;23248;48.120;14.854;2022-10-17T11:01:38;14.10;99.90
37378;DHT22;23248;48.120;14.854;2022-10-17T11:04:16;14.20;99.90
37378;DHT22;23248;48.120;14.854;2022-10-17T11:06:44;14.30;99.90
37378;DHT22;23248;48.120;14.854;2022-10-17T11:11:50;14.40;99.90
37378;DHT22;23248;48.120;14.854;2022-10-17T11:14:26;14.40;99.90
37378;DHT22;23248;48.120;14.854;2022-10-17T11:16:55;14.50;99.90
37378;DHT22;23248;48.120;14.854;2022-10-17T11:19:34;14.60;99.90
37378;DHT22;23248;48.120;14.854;2022-10-17T11:24:34;14.70;99.90
37378;DHT22;23248;48.120;14.854;2022-10-17T11:27:04;14.80;99.90
37378;DHT22;23248;48.120;14.854;2022-10-17T11:29:31;14.90;99.90
37378;DHT22;23248;48.120;14.854;2022-10-17T11:31:59;15.00;99.90
37378;DHT22;23248;48.120;14.854;2022-10-17T11:34:26;15.10;99.90
37378;DHT22;23248;48.120;14.854;2022-10-17T11:36:56;15.20;99.90
37378;DHT22;23248;48.120;14.854;2022-10-17T11:39:44;15.30;99.90
37378;DHT22;23248;48.120;14.854;2022-10-17T11:42:14;15.40;99.90
37378;DHT22;23248;48.120;14.854;2022-10-17T11:44:41;15.50;99.90
37378;DHT22;23248;48.120;14.854;2022-10-17T11:49:54;15.70;99.90
37378;DHT22;23248;48.120;14.854;2022-10-17T11:52:41;15.90;99.90
37378;DHT22;23248;48.120;14.854;2022-10-17T11:55:22;16.00;99.90
37378;DHT22;23248;48.120;14.854;2022-10-17T12:08:38;16.80;99.90
37378;DHT22;23248;48.120;14.854;2022-10-17T12:13:49;17.30;99.90
37378;DHT22;23248;48.120;14.854;2022-10-17T12:21:13;17.50;99.90
37378;DHT22;23248;48.120;14.854;2022-10-17T12:23:39;17.50;99.90
37378;DHT22;23248;48.120;14.854;2022-10-17T12:26:08;17.40;99.90
37378;DHT22;23248;48.120;14.854;2022-10-17T12:28:44;17.50;99.90
37378;DHT22;23248;48.120;14.854;2022-10-17T12:41:51;18.00;99.90
37378;DHT22;23248;48.120;14.854;2022-10-17T12:54:49;18.40;99.90
37378;DHT22;23248;48.120;14.854;2022-10-17T12:57:20;18.60;99.90
37378;DHT22;23248;48.120;14.854;2022-10-17T12:59:46;18.60;99.90
37378;DHT22;23248;48.120;14.854;2022-10-17T13:02:15;18.60;99.90
37378;DHT22;23248;48.120;14.854;2022-10-17T13:04:42;18.70;99.90
37378;DHT22;23248;48.120;14.854;2022-10-17T13:07:15;18.80;99.90
37378;DHT22;23248;48.120;14.854;2022-10-17T13:09:42;18.80;99.90
37378;DHT22;23248;48.120;14.854;2022-10-17T13:12:11;18.70;99.90
37378;DHT22;23248;48.120;14.854;2022-10-17T13:14:38;18.80;99.90
37378;DHT22;23248;48.120;14.854;2022-10-17T13:17:06;19.10;99.90
37378;DHT22;23248;48.120;14.854;2022-10-17T13:19:44;19.30;99.90
37378;DHT22;23248;48.120;14.854;2022-10-17T13:22:18;19.50;99.90
37378;DHT22;23248;48.120;14.854;2022-10-17T13:24:44;19.60;99.90
37378;DHT22;23248;48.120;14.854;2022-10-17T13:29:50;19.70;99.90
37378;DHT22;23248;48.120;14.854;2022-10-17T13:32:16;19.80;99.90
37378;DHT22;23248;48.120;14.854;2022-10-17T13:34:42;20.00;99.90
37378;DHT22;23248;48.120;14.854;2022-10-17T13:37:09;20.10;99.90
37378;DHT22;23248;48.120;14.854;2022-10-17T13:39:37;20.20;99.90
37378;DHT22;23248;48.120;14.854;2022-10-17T13:42:04;20.30;99.90
37378;DHT22;23248;48.120;14.854;2022-10-17T13:44:33;20.50;99.90
37378;DHT22;23248;48.120;14.854;2022-10-17T13:46:59;20.60;99.90
37378;DHT22;23248;48.120;14.854;2022-10-17T13:51:56;21.00;99.90
37378;DHT22;23248;48.120;14.854;2022-10-17T13:56:55;20.90;99.90
37378;DHT22;23248;48.120;14.854;2022-10-17T13:59:22;21.00;99.90
37378;DHT22;23248;48.120;14.854;2022-10-17T14:01:48;21.10;99.90
37378;DHT22;23248;48.120;14.854;2022-10-17T14:04:14;21.10;99.90
37378;DHT22;23248;48.120;14.854;2022-10-17T14:06:43;21.10;99.90
37378;DHT22;23248;48.120;14.854;2022-10-17T14:09:17;21.20;99.90
37378;DHT22;23248;48.120;14.854;2022-10-17T14:11:45;21.40;99.90
37378;DHT22;23248;48.120;14.854;2022-10-17T14:14:21;21.60;99.90
37378;DHT22;23248;48.120;14.854;2022-10-17T14:16:48;21.70;99.90
37378;DHT22;23248;48.120;14.854;2022-10-17T14:19:31;21.80;99.90
37378;DHT22;23248;48.120;14.854;2022-10-17T14:22:25;21.80;99.90
37378;DHT22;23248;48.120;14.854;2022-10-17T14:24:51;21.60;99.90
37378;DHT22;23248;48.120;14.854;2022-10-17T14:29:53;21.40;99.90
37378;DHT22;23248;48.120;14.854;2022-10-17T14:32:19;21.40;99.90
37378;DHT22;23248;48.120;14.854;2022-10-17T14:34:45;21.40;99.90
37378;DHT22;23248;48.120;14.854;2022-10-17T14:39:47;21.30;99.90
37378;DHT22;23248;48.120;14.854;2022-10-17T14:42:19;21.20;99.90
37378;DHT22;23248;48.120;14.854;2022-10-17T14:44:47;20.90;99.90
37378;DHT22;23248;48.120;14.854;2022-10-17T14:47:15;20.60;99.90
37378;DHT22;23248;48.120;14.854;2022-10-17T14:49:41;20.20;99.90
37378;DHT22;23248;48.120;14.854;2022-10-17T14:52:11;19.70;99.90
37378;DHT22;23248;48.120;14.854;2022-10-17T14:54:37;19.40;99.90
37378;DHT22;23248;48.120;14.854;2022-10-17T14:59:47;18.80;99.90
37378;DHT22;23248;48.120;14.854;2022-10-17T15:02:12;18.60;99.90
37378;DHT22;23248;48.120;14.854;2022-10-17T15:04:38;18.40;99.90
37378;DHT22;23248;48.120;14.854;2022-10-17T15:07:04;18.20;99.90
37378;DHT22;23248;48.120;14.854;2022-10-17T15:09:29;18.10;99.90
37378;DHT22;23248;48.120;14.854;2022-10-17T15:11:59;17.90;99.90
37378;DHT22;23248;48.120;14.854;2022-10-17T15:14:26;17.80;99.90
37378;DHT22;23248;48.120;14.854;2022-10-17T15:16:51;17.60;99.90
37378;DHT22;23248;48.120;14.854;2022-10-17T15:19:17;17.50;99.90
37378;DHT22;23248;48.120;14.854;2022-10-17T15:21:42;17.50;99.90
37378;DHT22;23248;48.120;14.854;2022-10-17T15:24:08;17.30;99.90
37378;DHT22;23248;48.120;14.854;2022-10-17T15:26:34;17.10;99.90
37378;DHT22;23248;48.120;14.854;2022-10-17T15:28:59;17.00;99.90
37378;DHT22;23248;48.120;14.854;2022-10-17T15:31:25;16.90;99.90
37378;DHT22;23248;48.120;14.854;2022-10-17T15:33:51;16.90;99.90
37378;DHT22;23248;48.120;14.854;2022-10-17T15:36:18;16.80;99.90
37378;DHT22;23248;48.120;14.854;2022-10-17T15:38:45;16.80;99.90
37378;DHT22;23248;48.120;14.854;2022-10-17T15:41:11;16.60;99.90
37378;DHT22;23248;48.120;14.854;2022-10-17T15:43:36;16.50;99.90
37378;DHT22;23248;48.120;14.854;2022-10-17T15:46:02;16.40;99.90
37378;DHT22;23248;48.120;14.854;2022-10-17T15:48:28;16.30;99.90
37378;DHT22;23248;48.120;14.854;2022-10-17T15:50:55;16.20;99.90
37378;DHT22;23248;48.120;14.854;2022-10-17T15:53:21;16.00;99.90
37378;DHT22;23248;48.120;14.854;2022-10-17T15:55:46;15.80;99.90
37378;DHT22;23248;48.120;14.854;2022-10-17T15:58:15;15.70;99.90
37378;DHT22;23248;48.120;14.854;2022-10-17T16:00:41;15.70;99.90
37378;DHT22;23248;48.120;14.854;2022-10-17T16:03:07;15.60;99.90
37378;DHT22;23248;48.120;14.854;2022-10-17T16:05:33;15.60;99.90
37378;DHT22;23248;48.120;14.854;2022-10-17T16:07:58;15.50;99.90
37378;DHT22;23248;48.120;14.854;2022-10-17T16:10:24;15.40;99.90
37378;DHT22;23248;48.120;14.854;2022-10-17T16:12:50;15.40;99.90
37378;DHT22;23248;48.120;14.854;2022-10-17T16:15:18;15.30;99.90
37378;DHT22;23248;48.120;14.854;2022-10-17T16:17:44;15.30;99.90
37378;DHT22;23248;48.120;14.854;2022-10-17T16:20:10;15.20;99.90
37378;DHT22;23248;48.120;14.854;2022-10-17T16:22:36;15.20;99.90
37378;DHT22;23248;48.120;14.854;2022-10-17T16:25:06;15.20;99.90
37378;DHT22;23248;48.120;14.854;2022-10-17T16:27:35;15.10;99.90
37378;DHT22;23248;48.120;14.854;2022-10-17T16:30:01;15.10;99.90
37378;DHT22;23248;48.120;14.854;2022-10-17T16:32:26;15.10;99.90
37378;DHT22;23248;48.120;14.854;2022-10-17T16:34:52;15.00;99.90
37378;DHT22;23248;48.120;14.854;2022-10-17T16:37:18;15.00;99.90
37378;DHT22;23248;48.120;14.854;2022-10-17T16:39:43;14.90;99.90
37378;DHT22;23248;48.120;14.854;2022-10-17T16:42:13;14.90;99.90
37378;DHT22;23248;48.120;14.854;2022-10-17T16:44:38;14.80;99.90
37378;DHT22;23248;48.120;14.854;2022-10-17T16:47:04;14.80;99.90
37378;DHT22;23248;48.120;14.854;2022-10-17T16:49:30;14.80;99.90
37378;DHT22;23248;48.120;14.854;2022-10-17T16:51:55;14.70;99.90
37378;DHT22;23248;48.120;14.854;2022-10-17T16:54:21;14.70;99.90
37378;DHT22;23248;48.120;14.854;2022-10-17T16:56:46;14.70;99.90
37378;DHT22;23248;48.120;14.854;2022-10-17T16:59:13;14.70;99.90
37378;DHT22;23248;48.120;14.854;2022-10-17T17:01:39;14.70;99.90
37378;DHT22;23248;48.120;14.854;2022-10-17T17:04:04;14.70;99.90
37378;DHT22;23248;48.120;14.854;2022-10-17T17:06:30;14.70;99.90
37378;DHT22;23248;48.120;14.854;2022-10-17T17:08:55;14.70;99.90
37378;DHT22;23248;48.120;14.854;2022-10-17T17:11:26;14.60;99.90
37378;DHT22;23248;48.120;14.854;2022-10-17T17:13:57;14.40;99.90
37378;DHT22;23248;48.120;14.854;2022-10-17T17:16:24;14.30;99.90
37378;DHT22;23248;48.120;14.854;2022-10-17T17:18:54;14.30;99.90
37378;DHT22;23248;48.120;14.854;2022-10-17T17:21:20;14.30;99.90
37378;DHT22;23248;48.120;14.854;2022-10-17T17:23:46;14.30;99.90
37378;DHT22;23248;48.120;14.854;2022-10-17T17:26:13;14.10;99.90
37378;DHT22;23248;48.120;14.854;2022-10-17T17:28:39;14.10;99.90
37378;DHT22;23248;48.120;14.854;2022-10-17T17:31:05;14.10;99.90
37378;DHT22;23248;48.120;14.854;2022-10-17T17:33:32;14.00;99.90
37378;DHT22;23248;48.120;14.854;2022-10-17T17:35:59;14.00;99.90
37378;DHT22;23248;48.120;14.854;2022-10-17T17:38:25;13.90;99.90
37378;DHT22;23248;48.120;14.854;2022-10-17T17:40:53;13.80;99.90
37378;DHT22;23248;48.120;14.854;2022-10-17T17:43:19;13.70;99.90
37378;DHT22;23248;48.120;14.854;2022-10-17T17:45:45;13.80;99.90